createdAt,value
2019-03-13T00:00:25.371Z,0
2019-03-13T00:01:28.293Z,0
2019-03-13T00:02:25.335Z,0
2019-03-13T00:03:25.327Z,0
2019-03-13T00:04:25.315Z,0
2019-03-13T00:05:25.337Z,0
2019-03-13T00:06:25.311Z,0
2019-03-13T00:07:25.287Z,0
2019-03-13T00:08:25.271Z,0
2019-03-13T00:09:25.339Z,0
2019-03-13T00:10:25.238Z,0
2019-03-13T00:11:25.235Z,0
2019-03-13T00:12:24.986Z,0
2019-03-13T00:13:25.217Z,0
2019-03-13T00:14:25.199Z,0
2019-03-13T00:15:24.938Z,0
2019-03-13T00:16:25.174Z,0
2019-03-13T00:17:25.227Z,0
2019-03-13T00:18:25.142Z,0
2019-03-13T00:19:25.134Z,0
2019-03-13T00:20:25.174Z,0
2019-03-13T00:21:25.124Z,0
2019-03-13T00:22:25.101Z,0
2019-03-13T00:23:25.087Z,0
2019-03-13T00:24:25.076Z,0
2019-03-13T00:25:25.082Z,0
2019-03-13T00:26:25.064Z,0
2019-03-13T00:27:25.043Z,0
2019-03-13T00:28:24.790Z,0
2019-03-13T00:29:25.036Z,0
2019-03-13T00:30:25.015Z,0
2019-03-13T00:31:25.009Z,0
2019-03-13T00:32:25.001Z,0
2019-03-13T00:33:24.742Z,0
2019-03-13T00:34:24.971Z,0
2019-03-13T00:35:24.951Z,0
2019-03-13T00:36:24.941Z,0
2019-03-13T00:37:24.927Z,0
2019-03-13T00:38:24.925Z,0
2019-03-13T00:39:24.668Z,0
2019-03-13T00:40:24.914Z,0
2019-03-13T00:41:24.995Z,0
2019-03-13T00:42:24.870Z,0
2019-03-13T00:43:24.867Z,0
2019-03-13T00:44:24.850Z,0
2019-03-13T00:45:24.840Z,0
2019-03-13T00:46:24.825Z,0
2019-03-13T00:47:24.819Z,0
2019-03-13T00:48:24.802Z,0
2019-03-13T00:49:24.796Z,0
2019-03-13T00:50:24.781Z,0
2019-03-13T00:51:24.771Z,0
2019-03-13T00:52:24.806Z,0
2019-03-13T00:53:24.755Z,0
2019-03-13T00:54:24.743Z,0
2019-03-13T00:55:24.790Z,0
2019-03-13T00:56:24.717Z,0
2019-03-13T00:57:24.698Z,0
2019-03-13T00:58:27.824Z,0
2019-03-13T00:59:24.686Z,0
2019-03-13T01:00:24.667Z,0
2019-03-13T01:01:24.661Z,0
2019-03-13T01:02:24.648Z,0
2019-03-13T01:03:24.630Z,0
2019-03-13T01:04:24.630Z,0
2019-03-13T01:05:24.612Z,0
2019-03-13T01:06:24.607Z,0
2019-03-13T01:07:24.591Z,0
2019-03-13T01:08:24.579Z,0
2019-03-13T01:09:24.577Z,0
2019-03-13T01:10:24.665Z,0
2019-03-13T01:11:27.074Z,0
2019-03-13T01:12:24.620Z,0
2019-03-13T01:13:24.528Z,0
2019-03-13T01:14:24.516Z,0
2019-03-13T01:15:24.498Z,0
2019-03-13T01:16:24.258Z,0
2019-03-13T01:17:24.482Z,0
2019-03-13T01:18:24.472Z,0
2019-03-13T01:19:24.455Z,0
2019-03-13T01:20:24.443Z,0
2019-03-13T01:21:24.437Z,0
2019-03-13T01:22:24.423Z,0
2019-03-13T01:23:24.410Z,0
2019-03-13T01:24:24.404Z,0
2019-03-13T01:25:24.405Z,0
2019-03-13T01:26:24.383Z,0
2019-03-13T01:27:24.372Z,0
2019-03-13T01:28:24.363Z,0
2019-03-13T01:29:24.346Z,0
2019-03-13T01:30:24.344Z,0
2019-03-13T01:31:24.331Z,0
2019-03-13T01:32:24.324Z,0
2019-03-13T01:33:24.299Z,0
2019-03-13T01:34:24.293Z,0
2019-03-13T01:35:24.082Z,0
2019-03-13T01:36:24.266Z,0
2019-03-13T01:37:24.272Z,0
2019-03-13T01:38:24.253Z,0
2019-03-13T01:39:24.249Z,0
2019-03-13T01:40:24.217Z,0
2019-03-13T01:41:23.976Z,0
2019-03-13T01:42:24.207Z,0
2019-03-13T01:43:24.197Z,0
2019-03-13T01:44:24.182Z,0
2019-03-13T01:45:24.209Z,0
2019-03-13T01:46:24.163Z,0
2019-03-13T01:47:24.366Z,0
2019-03-13T01:48:24.145Z,0
2019-03-13T01:49:24.129Z,0
2019-03-13T01:50:23.865Z,0
2019-03-13T01:51:24.107Z,0
2019-03-13T01:52:24.093Z,0
2019-03-13T01:53:24.086Z,0
2019-03-13T01:54:24.065Z,0
2019-03-13T01:55:24.061Z,0
2019-03-13T01:56:24.148Z,0
2019-03-13T01:57:24.051Z,0
2019-03-13T01:58:24.027Z,0
2019-03-13T01:59:24.009Z,0
2019-03-13T02:00:24.008Z,0
2019-03-13T02:01:23.990Z,0
2019-03-13T02:02:23.983Z,0
2019-03-13T02:03:23.970Z,0
2019-03-13T02:04:23.957Z,0
2019-03-13T02:05:23.946Z,0
2019-03-13T02:06:23.938Z,0
2019-03-13T02:07:23.923Z,0
2019-03-13T02:08:23.922Z,0
2019-03-13T02:09:23.900Z,0
2019-03-13T02:10:23.893Z,0
2019-03-13T02:11:23.897Z,0
2019-03-13T02:12:23.872Z,0
2019-03-13T02:13:23.862Z,0
2019-03-13T02:14:23.839Z,0
2019-03-13T02:15:23.848Z,0
2019-03-13T02:16:23.830Z,0
2019-03-13T02:17:23.816Z,0
2019-03-13T02:18:23.803Z,0
2019-03-13T02:19:23.797Z,0
2019-03-13T02:20:23.784Z,0
2019-03-13T02:21:23.762Z,0
2019-03-13T02:22:23.752Z,0
2019-03-13T02:23:23.739Z,0
2019-03-13T02:24:23.729Z,0
2019-03-13T02:25:23.484Z,0
2019-03-13T02:26:23.818Z,0
2019-03-13T02:27:23.804Z,0
2019-03-13T02:28:23.696Z,0
2019-03-13T02:29:23.677Z,0
2019-03-13T02:30:23.702Z,0
2019-03-13T02:31:23.779Z,0
2019-03-13T02:32:23.652Z,0
2019-03-13T02:33:23.700Z,0
2019-03-13T02:34:23.645Z,0
2019-03-13T02:35:23.626Z,0
2019-03-13T02:36:23.601Z,0
2019-03-13T02:37:23.609Z,0
2019-03-13T02:38:23.364Z,0
2019-03-13T02:39:23.572Z,0
2019-03-13T02:40:23.875Z,0
2019-03-13T02:41:23.580Z,0
2019-03-13T02:42:23.540Z,0
2019-03-13T02:43:23.524Z,0
2019-03-13T02:44:23.520Z,0
2019-03-13T02:45:23.295Z,0
2019-03-13T02:46:23.495Z,0
2019-03-13T02:47:28.012Z,0
2019-03-13T02:48:23.507Z,0
2019-03-13T02:49:23.474Z,0
2019-03-13T02:50:23.439Z,0
2019-03-13T02:51:23.421Z,0
2019-03-13T02:52:23.404Z,0
2019-03-13T02:53:23.415Z,0
2019-03-13T02:54:23.386Z,0
2019-03-13T02:55:23.407Z,0
2019-03-13T02:56:23.376Z,0
2019-03-13T02:57:23.139Z,0
2019-03-13T02:58:23.527Z,0
2019-03-13T02:59:23.330Z,0
2019-03-13T03:00:23.317Z,0
2019-03-13T03:01:23.308Z,0
2019-03-13T03:02:23.291Z,0
2019-03-13T03:03:23.042Z,0
2019-03-13T03:04:23.264Z,0
2019-03-13T03:05:23.274Z,0
2019-03-13T03:06:23.234Z,0
2019-03-13T03:07:23.257Z,0
2019-03-13T03:08:23.223Z,0
2019-03-13T03:09:23.198Z,0
2019-03-13T03:10:23.204Z,0
2019-03-13T03:11:23.211Z,0
2019-03-13T03:12:23.173Z,0
2019-03-13T03:13:23.260Z,0
2019-03-13T03:14:23.164Z,0
2019-03-13T03:15:23.149Z,0
2019-03-13T03:16:23.133Z,0
2019-03-13T03:17:23.095Z,0
2019-03-13T03:18:23.094Z,0
2019-03-13T03:19:23.109Z,0
2019-03-13T03:20:22.889Z,0
2019-03-13T03:21:23.046Z,0
2019-03-13T03:22:23.089Z,0
2019-03-13T03:23:23.047Z,0
2019-03-13T03:24:22.823Z,0
2019-03-13T03:25:23.014Z,0
2019-03-13T03:26:23.006Z,0
2019-03-13T03:27:22.981Z,0
2019-03-13T03:28:22.970Z,0
2019-03-13T03:29:22.975Z,0
2019-03-13T03:30:23.161Z,0
2019-03-13T03:31:23.036Z,0
2019-03-13T03:32:22.709Z,0
2019-03-13T03:33:23.005Z,0
2019-03-13T03:34:22.919Z,0
2019-03-13T03:35:23.057Z,0
2019-03-13T03:36:22.855Z,0
2019-03-13T03:37:23.022Z,0
2019-03-13T03:38:22.848Z,0
2019-03-13T03:39:22.836Z,0
2019-03-13T03:40:27.794Z,0
2019-03-13T03:41:22.815Z,0
2019-03-13T03:42:22.802Z,0
2019-03-13T03:43:38.705Z,0
2019-03-13T03:44:22.761Z,0
2019-03-13T03:45:22.770Z,0
2019-03-13T03:46:22.754Z,0
2019-03-13T03:47:22.729Z,0
2019-03-13T03:48:22.713Z,0
2019-03-13T03:49:22.701Z,0
2019-03-13T03:50:22.721Z,0
2019-03-13T03:51:22.697Z,0
2019-03-13T03:52:22.671Z,0
2019-03-13T03:53:22.648Z,0
2019-03-13T03:54:22.636Z,0
2019-03-13T03:55:22.631Z,0
2019-03-13T03:56:22.626Z,0
2019-03-13T03:57:22.673Z,0
2019-03-13T03:58:22.615Z,0
2019-03-13T03:59:22.588Z,0
2019-03-13T04:00:22.604Z,0
2019-03-13T04:01:22.647Z,0
2019-03-13T04:02:22.580Z,0
2019-03-13T04:03:22.543Z,0
2019-03-13T04:04:22.536Z,0
2019-03-13T04:05:22.655Z,0
2019-03-13T04:06:22.499Z,0
2019-03-13T04:07:22.488Z,0
2019-03-13T04:08:22.487Z,0
2019-03-13T04:09:22.516Z,0
2019-03-13T04:10:22.520Z,0
2019-03-13T04:11:22.451Z,0
2019-03-13T04:12:22.418Z,0
2019-03-13T04:13:22.397Z,0
2019-03-13T04:14:22.601Z,0
2019-03-13T04:15:22.560Z,0
2019-03-13T04:16:22.390Z,0
2019-03-13T04:17:22.359Z,0
2019-03-13T04:18:22.356Z,0
2019-03-13T04:19:22.365Z,0
2019-03-13T04:20:22.364Z,0
2019-03-13T04:21:22.328Z,0
2019-03-13T04:22:22.313Z,0
2019-03-13T04:23:22.299Z,0
2019-03-13T04:24:22.274Z,0
2019-03-13T04:25:22.267Z,0
2019-03-13T04:26:22.600Z,0
2019-03-13T04:27:22.252Z,0
2019-03-13T04:28:22.216Z,0
2019-03-13T04:29:22.204Z,0
2019-03-13T04:30:22.234Z,0
2019-03-13T04:31:22.182Z,0
2019-03-13T04:32:22.167Z,0
2019-03-13T04:33:22.181Z,0
2019-03-13T04:34:22.152Z,0
2019-03-13T04:35:21.905Z,0
2019-03-13T04:36:22.217Z,0
2019-03-13T04:37:22.115Z,0
2019-03-13T04:38:22.103Z,0
2019-03-13T04:39:22.090Z,0
2019-03-13T04:40:22.076Z,0
2019-03-13T04:41:22.048Z,0
2019-03-13T04:42:22.040Z,0
2019-03-13T04:43:21.790Z,0
2019-03-13T04:44:22.025Z,0
2019-03-13T04:45:22.028Z,0
2019-03-13T04:46:21.998Z,0
2019-03-13T04:47:24.852Z,0
2019-03-13T04:48:21.967Z,0
2019-03-13T04:49:21.947Z,0
2019-03-13T04:50:21.693Z,0
2019-03-13T04:51:21.933Z,0
2019-03-13T04:52:21.933Z,0
2019-03-13T04:53:21.902Z,0
2019-03-13T04:54:21.889Z,0
2019-03-13T04:55:21.886Z,0
2019-03-13T04:56:21.862Z,0
2019-03-13T04:57:21.848Z,0
2019-03-13T04:58:21.847Z,0
2019-03-13T04:59:21.831Z,0
2019-03-13T05:00:21.830Z,0
2019-03-13T05:01:21.800Z,0
2019-03-13T05:02:21.802Z,0
2019-03-13T05:03:21.779Z,0
2019-03-13T05:04:21.783Z,0
2019-03-13T05:05:21.749Z,0
2019-03-13T05:06:21.743Z,0
2019-03-13T05:07:21.724Z,0
2019-03-13T05:08:21.730Z,0
2019-03-13T05:09:21.728Z,0
2019-03-13T05:10:21.685Z,0
2019-03-13T05:11:21.682Z,0
2019-03-13T05:12:21.667Z,0
2019-03-13T05:13:21.691Z,0
2019-03-13T05:14:21.627Z,0
2019-03-13T05:15:21.611Z,0
2019-03-13T05:16:21.596Z,0
2019-03-13T05:17:21.581Z,0
2019-03-13T05:18:21.578Z,0
2019-03-13T05:19:21.554Z,0
2019-03-13T05:20:23.354Z,0
2019-03-13T05:21:21.540Z,0
2019-03-13T05:22:21.519Z,0
2019-03-13T05:23:21.502Z,5
2019-03-13T05:24:21.485Z,5
2019-03-13T05:25:24.033Z,5
2019-03-13T05:26:21.231Z,5
2019-03-13T05:27:21.563Z,5
2019-03-13T05:28:21.520Z,5
2019-03-13T05:29:21.424Z,5
2019-03-13T05:30:21.413Z,10
2019-03-13T05:31:21.400Z,10
2019-03-13T05:32:21.396Z,15
2019-03-13T05:33:21.417Z,15
2019-03-13T05:34:21.369Z,15
2019-03-13T05:35:21.369Z,20
2019-03-13T05:36:24.025Z,20
2019-03-13T05:37:21.332Z,20
2019-03-13T05:38:21.313Z,20
2019-03-13T05:39:21.302Z,25
2019-03-13T05:40:21.308Z,25
2019-03-13T05:41:21.280Z,25
2019-03-13T05:42:21.285Z,30
2019-03-13T05:43:21.263Z,30
2019-03-13T05:44:21.238Z,35
2019-03-13T05:45:21.267Z,35
2019-03-13T05:46:21.215Z,35
2019-03-13T05:47:21.208Z,40
2019-03-13T05:48:20.963Z,40
2019-03-13T05:49:20.930Z,45
2019-03-13T05:50:21.171Z,55
2019-03-13T05:51:21.149Z,55
2019-03-13T05:52:21.136Z,65
2019-03-13T05:53:21.125Z,70
2019-03-13T05:54:21.109Z,75
2019-03-13T05:55:21.105Z,70
2019-03-13T05:56:21.097Z,75
2019-03-13T05:57:21.075Z,80
2019-03-13T05:58:21.069Z,85
2019-03-13T05:59:21.058Z,95
2019-03-13T06:00:21.052Z,110
2019-03-13T06:01:21.042Z,110
2019-03-13T06:02:21.023Z,100
2019-03-13T06:03:21.012Z,95
2019-03-13T06:04:20.997Z,90
2019-03-13T06:05:20.995Z,120
2019-03-13T06:06:20.752Z,125
2019-03-13T06:07:20.960Z,130
2019-03-13T06:08:23.355Z,120
2019-03-13T06:09:20.941Z,145
2019-03-13T06:10:20.963Z,150
2019-03-13T06:11:20.913Z,155
2019-03-13T06:12:20.907Z,155
2019-03-13T06:13:20.892Z,165
2019-03-13T06:14:20.882Z,170
2019-03-13T06:15:20.881Z,175
2019-03-13T06:16:20.864Z,180
2019-03-13T06:17:20.868Z,205
2019-03-13T06:18:20.833Z,240
2019-03-13T06:19:20.822Z,240
2019-03-13T06:20:20.809Z,225
2019-03-13T06:21:20.573Z,225
2019-03-13T06:22:20.789Z,200
2019-03-13T06:23:20.788Z,135
2019-03-13T06:24:20.775Z,95
2019-03-13T06:25:20.792Z,100
2019-03-13T06:26:20.749Z,105
2019-03-13T06:27:20.746Z,110
2019-03-13T06:28:20.733Z,110
2019-03-13T06:29:20.721Z,120
2019-03-13T06:30:20.725Z,230
2019-03-13T06:31:20.707Z,235
2019-03-13T06:32:20.716Z,250
2019-03-13T06:33:20.702Z,255
2019-03-13T06:34:20.913Z,265
2019-03-13T06:35:23.511Z,300
2019-03-13T06:36:20.676Z,345
2019-03-13T06:37:20.658Z,370
2019-03-13T06:38:20.642Z,365
2019-03-13T06:39:20.639Z,375
2019-03-13T06:40:20.637Z,390
2019-03-13T06:41:20.624Z,285
2019-03-13T06:42:20.612Z,375
2019-03-13T06:43:20.603Z,310
2019-03-13T06:44:20.594Z,350
2019-03-13T06:45:23.113Z,380
2019-03-13T06:46:20.575Z,350
2019-03-13T06:47:20.567Z,200
2019-03-13T06:48:20.562Z,185
2019-03-13T06:49:20.562Z,170
2019-03-13T06:50:20.548Z,165
2019-03-13T06:51:20.550Z,160
2019-03-13T06:52:20.537Z,160
2019-03-13T06:53:20.536Z,145
2019-03-13T06:54:20.527Z,145
2019-03-13T06:55:20.545Z,145
2019-03-13T06:56:20.509Z,135
2019-03-13T06:57:20.505Z,140
2019-03-13T06:58:20.498Z,155
2019-03-13T06:59:22.957Z,160
2019-03-13T07:00:20.481Z,170
2019-03-13T07:01:20.472Z,180
2019-03-13T07:02:20.574Z,180
2019-03-13T07:03:20.477Z,175
2019-03-13T07:04:23.621Z,200
2019-03-13T07:05:20.442Z,260
2019-03-13T07:06:20.443Z,235
2019-03-13T07:07:20.436Z,250
2019-03-13T07:08:20.424Z,235
2019-03-13T07:09:20.425Z,260
2019-03-13T07:10:20.456Z,240
2019-03-13T07:11:20.412Z,250
2019-03-13T07:12:20.399Z,235
2019-03-13T07:13:20.385Z,250
2019-03-13T07:14:20.423Z,275
2019-03-13T07:15:20.374Z,380
2019-03-13T07:16:20.358Z,250
2019-03-13T07:17:20.345Z,275
2019-03-13T07:18:20.346Z,265
2019-03-13T07:19:20.346Z,255
2019-03-13T07:20:20.324Z,225
2019-03-13T07:21:23.285Z,200
2019-03-13T07:22:20.308Z,190
2019-03-13T07:23:20.297Z,235
2019-03-13T07:24:20.294Z,200
2019-03-13T07:25:20.318Z,495
2019-03-13T07:26:20.273Z,860
2019-03-13T07:27:20.262Z,830
2019-03-13T07:28:20.269Z,895
2019-03-13T07:29:22.168Z,385
2019-03-13T07:30:20.239Z,275
2019-03-13T07:31:20.232Z,340
2019-03-13T07:32:19.978Z,890
2019-03-13T07:33:20.227Z,680
2019-03-13T07:34:20.213Z,565
2019-03-13T07:35:20.207Z,415
2019-03-13T07:36:20.205Z,500
2019-03-13T07:37:20.238Z,465
2019-03-13T07:38:22.873Z,445
2019-03-13T07:39:20.170Z,545
2019-03-13T07:40:20.172Z,415
2019-03-13T07:41:20.228Z,395
2019-03-13T07:42:20.155Z,660
2019-03-13T07:43:20.146Z,735
2019-03-13T07:44:20.140Z,730
2019-03-13T07:45:20.127Z,385
2019-03-13T07:46:20.119Z,560
2019-03-13T07:47:20.122Z,840
2019-03-13T07:48:20.115Z,825
2019-03-13T07:49:20.112Z,440
2019-03-13T07:50:20.102Z,710
2019-03-13T07:51:20.099Z,715
2019-03-13T07:52:20.092Z,715
2019-03-13T07:53:20.079Z,725
2019-03-13T07:54:20.076Z,710
2019-03-13T07:55:20.084Z,720
2019-03-13T07:56:20.073Z,720
2019-03-13T07:57:20.066Z,720
2019-03-13T07:58:20.061Z,725
2019-03-13T07:59:20.089Z,735
2019-03-13T08:00:20.055Z,760
2019-03-13T08:01:20.055Z,770
2019-03-13T08:02:20.052Z,790
2019-03-13T08:03:20.052Z,810
2019-03-13T08:04:20.036Z,880
2019-03-13T08:05:20.034Z,910
2019-03-13T08:06:20.026Z,450
2019-03-13T08:07:20.023Z,320
2019-03-13T08:08:20.054Z,360
2019-03-13T08:09:20.034Z,440
2019-03-13T08:10:20.010Z,440
2019-03-13T08:11:19.772Z,425
2019-03-13T08:12:20.007Z,425
2019-03-13T08:13:20.000Z,425
2019-03-13T08:14:19.990Z,430
2019-03-13T08:15:19.986Z,440
2019-03-13T08:16:19.991Z,430
2019-03-13T08:17:19.996Z,430
2019-03-13T08:18:19.983Z,420
2019-03-13T08:19:19.961Z,405
2019-03-13T08:20:19.713Z,450
2019-03-13T08:21:19.946Z,435
2019-03-13T08:22:19.952Z,420
2019-03-13T08:23:19.943Z,425
2019-03-13T08:24:19.941Z,385
2019-03-13T08:25:19.946Z,405
2019-03-13T08:26:19.922Z,405
2019-03-13T08:27:19.917Z,395
2019-03-13T08:28:19.917Z,355
2019-03-13T08:29:19.916Z,320
2019-03-13T08:30:22.904Z,270
2019-03-13T08:31:19.900Z,235
2019-03-13T08:32:19.881Z,225
2019-03-13T08:33:19.911Z,225
2019-03-13T08:34:19.873Z,240
2019-03-13T08:35:19.871Z,260
2019-03-13T08:36:19.856Z,245
2019-03-13T08:37:19.849Z,330
2019-03-13T08:38:19.844Z,395
2019-03-13T08:39:19.835Z,385
2019-03-13T08:40:19.837Z,360
2019-03-13T08:41:19.818Z,355
2019-03-13T08:42:19.823Z,350
2019-03-13T08:43:19.572Z,415
2019-03-13T08:44:19.801Z,405
2019-03-13T08:45:19.805Z,415
2019-03-13T08:46:19.784Z,360
2019-03-13T08:47:19.782Z,355
2019-03-13T08:48:19.769Z,385
2019-03-13T08:49:19.762Z,420
2019-03-13T08:50:19.858Z,430
2019-03-13T08:51:19.751Z,390
2019-03-13T08:52:19.739Z,425
2019-03-13T08:53:19.730Z,420
2019-03-13T08:54:19.735Z,415
2019-03-13T08:55:19.723Z,465
2019-03-13T08:56:19.715Z,470
2019-03-13T08:57:19.737Z,505
2019-03-13T08:58:19.694Z,490
2019-03-13T08:59:19.688Z,485
2019-03-13T09:00:19.679Z,455
2019-03-13T09:01:19.670Z,435
2019-03-13T09:02:19.663Z,420
2019-03-13T09:03:19.413Z,425
2019-03-13T09:04:19.650Z,475
2019-03-13T09:05:19.665Z,475
2019-03-13T09:06:19.716Z,455
2019-03-13T09:07:19.635Z,425
2019-03-13T09:08:19.500Z,395
2019-03-13T09:09:19.615Z,405
2019-03-13T09:10:22.463Z,390
2019-03-13T09:11:19.602Z,380
2019-03-13T09:12:19.611Z,415
2019-03-13T09:13:19.591Z,415
2019-03-13T09:14:19.693Z,390
2019-03-13T09:15:19.654Z,365
2019-03-13T09:16:22.155Z,370
2019-03-13T09:17:19.560Z,440
2019-03-13T09:18:19.568Z,435
2019-03-13T09:19:19.303Z,490
2019-03-13T09:20:19.570Z,485
2019-03-13T09:21:19.535Z,475
2019-03-13T09:22:19.561Z,425
2019-03-13T09:23:19.515Z,385
2019-03-13T09:24:19.515Z,410
2019-03-13T09:25:22.009Z,445
2019-03-13T09:26:19.498Z,450
2019-03-13T09:27:19.502Z,455
2019-03-13T09:28:19.523Z,455
2019-03-13T09:29:19.612Z,440
2019-03-13T09:30:19.228Z,460
2019-03-13T09:31:19.489Z,455
2019-03-13T09:32:19.487Z,475
2019-03-13T09:33:19.455Z,465
2019-03-13T09:34:19.199Z,460
2019-03-13T09:35:19.430Z,445
2019-03-13T09:36:19.427Z,450
2019-03-13T09:37:19.546Z,480
2019-03-13T09:38:19.424Z,460
2019-03-13T09:39:19.408Z,490
2019-03-13T09:40:19.502Z,485
2019-03-13T09:41:19.394Z,420
2019-03-13T09:42:19.144Z,410
2019-03-13T09:43:19.379Z,500
2019-03-13T09:44:19.433Z,515
2019-03-13T09:45:19.391Z,505
2019-03-13T09:46:19.505Z,445
2019-03-13T09:47:19.358Z,465
2019-03-13T09:48:19.374Z,475
2019-03-13T09:49:21.889Z,450
2019-03-13T09:50:19.332Z,400
2019-03-13T09:51:19.329Z,415
2019-03-13T09:52:19.331Z,420
2019-03-13T09:53:19.316Z,390
2019-03-13T09:54:19.077Z,395
2019-03-13T09:55:19.299Z,440
2019-03-13T09:56:19.306Z,455
2019-03-13T09:57:19.294Z,395
2019-03-13T09:58:19.291Z,325
2019-03-13T09:59:19.304Z,325
2019-03-13T10:00:19.289Z,305
2019-03-13T10:01:19.275Z,340
2019-03-13T10:02:19.261Z,385
2019-03-13T10:03:19.277Z,410
2019-03-13T10:04:19.252Z,370
2019-03-13T10:05:19.354Z,440
2019-03-13T10:06:22.238Z,500
2019-03-13T10:07:19.242Z,510
2019-03-13T10:08:19.236Z,510
2019-03-13T10:09:19.224Z,520
2019-03-13T10:10:19.279Z,490
2019-03-13T10:11:19.212Z,490
2019-03-13T10:12:19.204Z,540
2019-03-13T10:13:19.210Z,515
2019-03-13T10:14:19.188Z,515
2019-03-13T10:15:19.031Z,505
2019-03-13T10:16:19.181Z,520
2019-03-13T10:17:20.802Z,515
2019-03-13T10:18:19.266Z,520
2019-03-13T10:19:19.164Z,475
2019-03-13T10:20:18.943Z,450
2019-03-13T10:21:19.144Z,470
2019-03-13T10:22:19.141Z,480
2019-03-13T10:23:19.134Z,490
2019-03-13T10:24:19.138Z,520
2019-03-13T10:25:19.135Z,500
2019-03-13T10:26:19.118Z,500
2019-03-13T10:27:19.114Z,540
2019-03-13T10:28:19.110Z,505
2019-03-13T10:29:19.096Z,505
2019-03-13T10:30:19.188Z,500
2019-03-13T10:31:18.849Z,490
2019-03-13T10:32:19.090Z,515
2019-03-13T10:33:19.084Z,505
2019-03-13T10:34:19.139Z,495
2019-03-13T10:35:19.073Z,475
2019-03-13T10:36:19.073Z,435
2019-03-13T10:37:19.056Z,400
2019-03-13T10:38:23.783Z,365
2019-03-13T10:39:19.049Z,365
2019-03-13T10:40:19.045Z,390
2019-03-13T10:41:19.041Z,405
2019-03-13T10:42:19.040Z,395
2019-03-13T10:43:19.029Z,405
2019-03-13T10:44:19.021Z,415
2019-03-13T10:45:19.022Z,410
2019-03-13T10:46:19.009Z,425
2019-03-13T10:47:19.055Z,420
2019-03-13T10:48:18.999Z,420
2019-03-13T10:49:19.153Z,390
2019-03-13T10:50:19.000Z,395
2019-03-13T10:51:18.987Z,415
2019-03-13T10:52:18.977Z,385
2019-03-13T10:53:19.040Z,340
2019-03-13T10:54:18.968Z,390
2019-03-13T10:55:18.977Z,400
2019-03-13T10:56:19.021Z,395
2019-03-13T10:57:18.970Z,390
2019-03-13T10:58:18.951Z,380
2019-03-13T10:59:18.997Z,360
2019-03-13T11:00:18.991Z,330
2019-03-13T11:01:18.925Z,405
2019-03-13T11:02:18.924Z,425
2019-03-13T11:03:18.915Z,470
2019-03-13T11:04:18.905Z,455
2019-03-13T11:05:18.906Z,455
2019-03-13T11:06:18.896Z,400
2019-03-13T11:07:18.934Z,340
2019-03-13T11:08:18.666Z,295
2019-03-13T11:09:18.884Z,335
2019-03-13T11:10:18.872Z,385
2019-03-13T11:11:18.871Z,375
2019-03-13T11:12:18.869Z,360
2019-03-13T11:13:18.905Z,335
2019-03-13T11:14:25.184Z,335
2019-03-13T11:15:18.863Z,305
2019-03-13T11:16:18.875Z,260
2019-03-13T11:17:18.833Z,225
2019-03-13T11:18:20.658Z,210
2019-03-13T11:19:18.846Z,240
2019-03-13T11:20:18.827Z,240
2019-03-13T11:21:18.817Z,250
2019-03-13T11:22:18.842Z,285
2019-03-13T11:23:18.796Z,340
2019-03-13T11:24:18.868Z,330
2019-03-13T11:25:18.799Z,310
2019-03-13T11:26:18.786Z,380
2019-03-13T11:27:18.774Z,440
2019-03-13T11:28:18.771Z,475
2019-03-13T11:29:18.757Z,475
2019-03-13T11:30:20.662Z,495
2019-03-13T11:31:18.508Z,480
2019-03-13T11:32:18.737Z,470
2019-03-13T11:33:18.741Z,460
2019-03-13T11:34:18.729Z,460
2019-03-13T11:35:18.724Z,435
2019-03-13T11:36:18.712Z,480
2019-03-13T11:37:18.710Z,460
2019-03-13T11:38:18.703Z,475
2019-03-13T11:39:18.696Z,435
2019-03-13T11:40:18.685Z,415
2019-03-13T11:41:18.899Z,445
2019-03-13T11:42:18.681Z,455
2019-03-13T11:43:18.680Z,455
2019-03-13T11:44:18.678Z,410
2019-03-13T11:45:18.660Z,370
2019-03-13T11:46:18.667Z,355
2019-03-13T11:47:18.653Z,365
2019-03-13T11:48:18.644Z,400
2019-03-13T11:49:18.403Z,390
2019-03-13T11:50:18.631Z,360
2019-03-13T11:51:18.625Z,365
2019-03-13T11:52:18.621Z,395
2019-03-13T11:53:18.689Z,400
2019-03-13T11:54:18.762Z,375
2019-03-13T11:55:18.597Z,330
2019-03-13T11:56:18.600Z,385
2019-03-13T11:57:18.599Z,410
2019-03-13T11:58:18.598Z,350
2019-03-13T11:59:18.582Z,345
2019-03-13T12:00:18.574Z,355
2019-03-13T12:01:20.913Z,325
2019-03-13T12:02:18.559Z,275
2019-03-13T12:03:18.550Z,300
2019-03-13T12:04:18.551Z,335
2019-03-13T12:05:18.543Z,345
2019-03-13T12:06:18.549Z,320
2019-03-13T12:07:18.527Z,310
2019-03-13T12:08:18.519Z,325
2019-03-13T12:09:18.514Z,295
2019-03-13T12:10:18.275Z,310
2019-03-13T12:11:18.581Z,290
2019-03-13T12:12:18.491Z,365
2019-03-13T12:13:20.018Z,370
2019-03-13T12:14:18.499Z,365
2019-03-13T12:15:18.478Z,355
2019-03-13T12:16:18.465Z,295
2019-03-13T12:17:18.494Z,250
2019-03-13T12:18:18.458Z,260
2019-03-13T12:19:18.448Z,280
2019-03-13T12:20:18.445Z,240
2019-03-13T12:21:18.447Z,235
2019-03-13T12:22:18.428Z,220
2019-03-13T12:23:18.426Z,225
2019-03-13T12:24:18.424Z,240
2019-03-13T12:25:18.407Z,235
2019-03-13T12:26:18.435Z,215
2019-03-13T12:27:18.395Z,180
2019-03-13T12:28:18.420Z,160
2019-03-13T12:29:18.390Z,160
2019-03-13T12:30:18.384Z,180
2019-03-13T12:31:21.182Z,155
2019-03-13T12:32:18.362Z,195
2019-03-13T12:33:18.401Z,220
2019-03-13T12:34:18.347Z,205
2019-03-13T12:35:18.338Z,190
2019-03-13T12:36:18.333Z,180
2019-03-13T12:37:18.329Z,215
2019-03-13T12:38:18.327Z,225
2019-03-13T12:39:18.318Z,220
2019-03-13T12:40:18.304Z,200
2019-03-13T12:41:18.403Z,205
2019-03-13T12:42:18.305Z,200
2019-03-13T12:43:18.290Z,190
2019-03-13T12:44:18.328Z,205
2019-03-13T12:45:18.279Z,220
2019-03-13T12:46:18.263Z,225
2019-03-13T12:47:18.262Z,215
2019-03-13T12:48:26.003Z,230
2019-03-13T12:49:18.235Z,230
2019-03-13T12:50:18.231Z,220
2019-03-13T12:51:18.229Z,215
2019-03-13T12:52:18.216Z,215
2019-03-13T12:53:18.213Z,220
2019-03-13T12:54:18.215Z,220
2019-03-13T12:55:18.186Z,225
2019-03-13T12:56:18.182Z,240
2019-03-13T12:57:18.186Z,255
2019-03-13T12:58:18.165Z,240
2019-03-13T12:59:18.159Z,240
2019-03-13T13:00:18.158Z,230
2019-03-13T13:01:18.146Z,235
2019-03-13T13:02:18.140Z,275
2019-03-13T13:03:18.136Z,280
2019-03-13T13:04:18.121Z,260
2019-03-13T13:05:18.123Z,255
2019-03-13T13:06:17.871Z,270
2019-03-13T13:07:18.096Z,290
2019-03-13T13:08:18.087Z,295
2019-03-13T13:09:18.089Z,320
2019-03-13T13:10:18.090Z,345
2019-03-13T13:11:18.087Z,365
2019-03-13T13:12:18.058Z,350
2019-03-13T13:13:18.069Z,340
2019-03-13T13:14:18.039Z,325
2019-03-13T13:15:17.806Z,305
2019-03-13T13:16:18.031Z,340
2019-03-13T13:17:18.017Z,360
2019-03-13T13:18:18.016Z,345
2019-03-13T13:19:18.002Z,365
2019-03-13T13:20:17.992Z,360
2019-03-13T13:21:17.758Z,350
2019-03-13T13:22:17.988Z,350
2019-03-13T13:23:17.973Z,370
2019-03-13T13:24:17.986Z,395
2019-03-13T13:25:17.967Z,370
2019-03-13T13:26:17.968Z,305
2019-03-13T13:27:17.957Z,280
2019-03-13T13:28:17.934Z,285
2019-03-13T13:29:17.928Z,270
2019-03-13T13:30:17.920Z,290
2019-03-13T13:31:17.935Z,280
2019-03-13T13:32:17.945Z,285
2019-03-13T13:33:17.919Z,260
2019-03-13T13:34:17.660Z,265
2019-03-13T13:35:17.890Z,285
2019-03-13T13:36:17.891Z,290
2019-03-13T13:37:17.879Z,280
2019-03-13T13:38:19.712Z,265
2019-03-13T13:39:17.867Z,235
2019-03-13T13:40:17.857Z,220
2019-03-13T13:41:17.847Z,240
2019-03-13T13:42:17.937Z,240
2019-03-13T13:43:17.839Z,255
2019-03-13T13:44:17.827Z,245
2019-03-13T13:45:17.810Z,230
2019-03-13T13:46:17.807Z,205
2019-03-13T13:47:17.798Z,200
2019-03-13T13:48:17.798Z,215
2019-03-13T13:49:17.546Z,235
2019-03-13T13:50:17.781Z,225
2019-03-13T13:51:17.781Z,225
2019-03-13T13:52:17.763Z,195
2019-03-13T13:53:17.784Z,180
2019-03-13T13:54:17.751Z,175
2019-03-13T13:55:17.737Z,165
2019-03-13T13:56:17.734Z,170
2019-03-13T13:57:17.742Z,180
2019-03-13T13:58:17.729Z,175
2019-03-13T13:59:17.477Z,185
2019-03-13T14:00:17.704Z,220
2019-03-13T14:01:17.728Z,245
2019-03-13T14:02:17.684Z,270
2019-03-13T14:03:17.681Z,285
2019-03-13T14:04:17.667Z,295
2019-03-13T14:05:17.673Z,285
2019-03-13T14:06:17.672Z,270
2019-03-13T14:07:17.652Z,270
2019-03-13T14:08:17.652Z,250
2019-03-13T14:09:17.639Z,240